sensor_id;sensor_type;location;lat;lon;timestamp;P1;durP1;ratioP1;P2;durP2;ratioP2
19605;SDS011;9950;50.168;8.210;2024-03-08T00:00:17;38.33;;;17.25;;
19605;SDS011;9950;50.168;8.210;2024-03-08T00:02:45;33.67;;;16.70;;
19605;SDS011;9950;50.168;8.210;2024-03-08T00:05:14;32.60;;;16.20;;
19605;SDS011;9950;50.168;8.210;2024-03-08T00:07:41;33.22;;;16.35;;
19605;SDS011;9950;50.168;8.210;2024-03-08T00:10:09;33.00;;;16.10;;
19605;SDS011;9950;50.168;8.210;2024-03-08T00:12:37;30.42;;;17.63;;
19605;SDS011;9950;50.168;8.210;2024-03-08T00:15:07;29.95;;;15.80;;
19605;SDS011;9950;50.168;8.210;2024-03-08T00:17:34;32.83;;;16.67;;
19605;SDS011;9950;50.168;8.210;2024-03-08T00:20:02;32.72;;;16.65;;
19605;SDS011;9950;50.168;8.210;2024-03-08T00:22:34;30.17;;;16.70;;
19605;SDS011;9950;50.168;8.210;2024-03-08T00:25:02;31.13;;;16.92;;
19605;SDS011;9950;50.168;8.210;2024-03-08T00:27:29;31.90;;;16.42;;
19605;SDS011;9950;50.168;8.210;2024-03-08T00:29:56;30.25;;;16.20;;
19605;SDS011;9950;50.168;8.210;2024-03-08T00:32:23;31.70;;;17.02;;
19605;SDS011;9950;50.168;8.210;2024-03-08T00:34:50;30.70;;;17.10;;
19605;SDS011;9950;50.168;8.210;2024-03-08T00:37:17;31.35;;;16.45;;
19605;SDS011;9950;50.168;8.210;2024-03-08T00:39:46;28.23;;;15.63;;
19605;SDS011;9950;50.168;8.210;2024-03-08T00:42:14;28.00;;;15.85;;
19605;SDS011;9950;50.168;8.210;2024-03-08T00:44:41;29.40;;;16.13;;
19605;SDS011;9950;50.168;8.210;2024-03-08T00:47:08;32.65;;;16.33;;
19605;SDS011;9950;50.168;8.210;2024-03-08T00:49:35;29.90;;;15.52;;
19605;SDS011;9950;50.168;8.210;2024-03-08T00:52:03;32.00;;;16.48;;
19605;SDS011;9950;50.168;8.210;2024-03-08T00:54:31;29.63;;;16.20;;
19605;SDS011;9950;50.168;8.210;2024-03-08T00:56:59;33.00;;;16.60;;
19605;SDS011;9950;50.168;8.210;2024-03-08T00:59:27;31.73;;;16.35;;
19605;SDS011;9950;50.168;8.210;2024-03-08T01:01:55;30.02;;;16.70;;
19605;SDS011;9950;50.168;8.210;2024-03-08T01:04:24;31.00;;;17.10;;
19605;SDS011;9950;50.168;8.210;2024-03-08T01:06:53;30.40;;;16.45;;
19605;SDS011;9950;50.168;8.210;2024-03-08T01:09:21;34.35;;;17.27;;
19605;SDS011;9950;50.168;8.210;2024-03-08T01:11:48;35.25;;;17.30;;
19605;SDS011;9950;50.168;8.210;2024-03-08T01:14:17;31.00;;;16.58;;
19605;SDS011;9950;50.168;8.210;2024-03-08T01:16:44;32.75;;;16.50;;
19605;SDS011;9950;50.168;8.210;2024-03-08T01:19:11;35.22;;;16.75;;
19605;SDS011;9950;50.168;8.210;2024-03-08T01:21:38;31.50;;;15.80;;
19605;SDS011;9950;50.168;8.210;2024-03-08T01:24:06;30.90;;;15.70;;
19605;SDS011;9950;50.168;8.210;2024-03-08T01:26:33;30.20;;;15.07;;
19605;SDS011;9950;50.168;8.210;2024-03-08T01:29:00;31.88;;;15.93;;
19605;SDS011;9950;50.168;8.210;2024-03-08T01:31:29;29.75;;;14.80;;
19605;SDS011;9950;50.168;8.210;2024-03-08T01:33:56;29.73;;;16.13;;
19605;SDS011;9950;50.168;8.210;2024-03-08T01:36:23;31.98;;;16.52;;
19605;SDS011;9950;50.168;8.210;2024-03-08T01:38:51;37.17;;;17.77;;
19605;SDS011;9950;50.168;8.210;2024-03-08T01:41:18;33.65;;;17.75;;
19605;SDS011;9950;50.168;8.210;2024-03-08T01:43:46;33.67;;;17.58;;
19605;SDS011;9950;50.168;8.210;2024-03-08T01:46:16;32.03;;;17.42;;
19605;SDS011;9950;50.168;8.210;2024-03-08T01:48:45;31.08;;;16.25;;
19605;SDS011;9950;50.168;8.210;2024-03-08T01:51:13;34.13;;;15.77;;
19605;SDS011;9950;50.168;8.210;2024-03-08T01:53:41;32.95;;;16.73;;
19605;SDS011;9950;50.168;8.210;2024-03-08T01:56:10;29.60;;;16.35;;
19605;SDS011;9950;50.168;8.210;2024-03-08T01:58:39;29.65;;;15.60;;
19605;SDS011;9950;50.168;8.210;2024-03-08T02:01:08;34.95;;;17.80;;
19605;SDS011;9950;50.168;8.210;2024-03-08T02:03:35;33.17;;;16.30;;
19605;SDS011;9950;50.168;8.210;2024-03-08T02:06:04;33.65;;;17.27;;
19605;SDS011;9950;50.168;8.210;2024-03-08T02:08:35;31.20;;;16.33;;
19605;SDS011;9950;50.168;8.210;2024-03-08T02:11:02;31.85;;;16.52;;
19605;SDS011;9950;50.168;8.210;2024-03-08T02:13:29;36.28;;;17.52;;
19605;SDS011;9950;50.168;8.210;2024-03-08T02:15:57;31.23;;;16.42;;
19605;SDS011;9950;50.168;8.210;2024-03-08T02:18:25;33.08;;;16.75;;
19605;SDS011;9950;50.168;8.210;2024-03-08T02:20:54;32.80;;;16.98;;
19605;SDS011;9950;50.168;8.210;2024-03-08T02:23:21;32.17;;;16.38;;
19605;SDS011;9950;50.168;8.210;2024-03-08T02:25:49;31.83;;;16.33;;
19605;SDS011;9950;50.168;8.210;2024-03-08T02:28:17;32.80;;;17.15;;
19605;SDS011;9950;50.168;8.210;2024-03-08T02:30:45;31.02;;;15.88;;
19605;SDS011;9950;50.168;8.210;2024-03-08T02:33:13;33.58;;;16.55;;
19605;SDS011;9950;50.168;8.210;2024-03-08T02:35:41;31.63;;;16.58;;
19605;SDS011;9950;50.168;8.210;2024-03-08T02:38:12;32.63;;;16.00;;
19605;SDS011;9950;50.168;8.210;2024-03-08T02:40:41;35.33;;;16.95;;
19605;SDS011;9950;50.168;8.210;2024-03-08T02:43:08;34.58;;;17.40;;
19605;SDS011;9950;50.168;8.210;2024-03-08T02:45:36;33.30;;;17.13;;
19605;SDS011;9950;50.168;8.210;2024-03-08T02:48:04;31.13;;;16.80;;
19605;SDS011;9950;50.168;8.210;2024-03-08T02:50:31;35.60;;;17.98;;
19605;SDS011;9950;50.168;8.210;2024-03-08T02:52:59;30.35;;;15.48;;
19605;SDS011;9950;50.168;8.210;2024-03-08T02:55:28;38.35;;;18.38;;
19605;SDS011;9950;50.168;8.210;2024-03-08T02:57:55;35.97;;;17.58;;
19605;SDS011;9950;50.168;8.210;2024-03-08T03:00:22;30.83;;;16.65;;
19605;SDS011;9950;50.168;8.210;2024-03-08T03:02:50;39.72;;;18.08;;
19605;SDS011;9950;50.168;8.210;2024-03-08T03:05:18;35.08;;;17.17;;
19605;SDS011;9950;50.168;8.210;2024-03-08T03:07:46;33.08;;;17.00;;
19605;SDS011;9950;50.168;8.210;2024-03-08T03:10:13;33.20;;;17.83;;
19605;SDS011;9950;50.168;8.210;2024-03-08T03:12:43;40.05;;;17.55;;
19605;SDS011;9950;50.168;8.210;2024-03-08T03:15:10;37.78;;;18.15;;
19605;SDS011;9950;50.168;8.210;2024-03-08T03:17:38;35.00;;;16.95;;
19605;SDS011;9950;50.168;8.210;2024-03-08T03:20:06;36.75;;;18.65;;
19605;SDS011;9950;50.168;8.210;2024-03-08T03:22:37;37.97;;;18.10;;
19605;SDS011;9950;50.168;8.210;2024-03-08T03:25:06;35.80;;;18.42;;
19605;SDS011;9950;50.168;8.210;2024-03-08T03:27:34;36.95;;;17.83;;
19605;SDS011;9950;50.168;8.210;2024-03-08T03:30:03;34.60;;;17.10;;
19605;SDS011;9950;50.168;8.210;2024-03-08T03:32:46;35.95;;;18.58;;
19605;SDS011;9950;50.168;8.210;2024-03-08T03:35:13;38.15;;;18.80;;
19605;SDS011;9950;50.168;8.210;2024-03-08T03:37:41;37.53;;;17.30;;
19605;SDS011;9950;50.168;8.210;2024-03-08T03:40:10;37.80;;;17.85;;
19605;SDS011;9950;50.168;8.210;2024-03-08T03:42:38;36.35;;;17.85;;
19605;SDS011;9950;50.168;8.210;2024-03-08T03:45:06;36.75;;;17.77;;
19605;SDS011;9950;50.168;8.210;2024-03-08T03:47:35;36.78;;;18.25;;
19605;SDS011;9950;50.168;8.210;2024-03-08T03:50:03;36.97;;;18.48;;
19605;SDS011;9950;50.168;8.210;2024-03-08T03:52:30;42.25;;;19.20;;
19605;SDS011;9950;50.168;8.210;2024-03-08T03:54:58;35.65;;;17.92;;
19605;SDS011;9950;50.168;8.210;2024-03-08T03:57:25;36.67;;;18.83;;
19605;SDS011;9950;50.168;8.210;2024-03-08T03:59:52;37.22;;;18.63;;
19605;SDS011;9950;50.168;8.210;2024-03-08T04:02:20;38.30;;;18.58;;
19605;SDS011;9950;50.168;8.210;2024-03-08T04:04:47;37.38;;;18.63;;
19605;SDS011;9950;50.168;8.210;2024-03-08T04:07:14;44.28;;;19.65;;
19605;SDS011;9950;50.168;8.210;2024-03-08T04:09:41;40.03;;;18.80;;
19605;SDS011;9950;50.168;8.210;2024-03-08T04:12:09;38.35;;;19.00;;
19605;SDS011;9950;50.168;8.210;2024-03-08T04:14:36;39.63;;;19.08;;
19605;SDS011;9950;50.168;8.210;2024-03-08T04:17:04;40.60;;;18.77;;
19605;SDS011;9950;50.168;8.210;2024-03-08T04:19:33;37.88;;;18.35;;
19605;SDS011;9950;50.168;8.210;2024-03-08T04:22:00;38.88;;;18.65;;
19605;SDS011;9950;50.168;8.210;2024-03-08T04:24:27;37.45;;;18.25;;
19605;SDS011;9950;50.168;8.210;2024-03-08T04:26:55;45.40;;;20.45;;
19605;SDS011;9950;50.168;8.210;2024-03-08T04:29:24;40.40;;;20.08;;
19605;SDS011;9950;50.168;8.210;2024-03-08T04:31:52;40.45;;;19.80;;
19605;SDS011;9950;50.168;8.210;2024-03-08T04:34:19;42.60;;;19.45;;
19605;SDS011;9950;50.168;8.210;2024-03-08T04:36:48;38.60;;;20.15;;
19605;SDS011;9950;50.168;8.210;2024-03-08T04:39:15;41.25;;;20.23;;
19605;SDS011;9950;50.168;8.210;2024-03-08T04:41:43;39.33;;;19.67;;
19605;SDS011;9950;50.168;8.210;2024-03-08T04:44:11;38.08;;;20.23;;
19605;SDS011;9950;50.168;8.210;2024-03-08T04:46:38;40.38;;;19.90;;
19605;SDS011;9950;50.168;8.210;2024-03-08T04:49:06;40.17;;;20.15;;
19605;SDS011;9950;50.168;8.210;2024-03-08T04:51:33;40.60;;;19.85;;
19605;SDS011;9950;50.168;8.210;2024-03-08T04:54:02;43.58;;;19.45;;
19605;SDS011;9950;50.168;8.210;2024-03-08T04:56:29;38.33;;;19.33;;
19605;SDS011;9950;50.168;8.210;2024-03-08T04:58:57;39.28;;;19.15;;
19605;SDS011;9950;50.168;8.210;2024-03-08T05:01:24;43.17;;;20.40;;
19605;SDS011;9950;50.168;8.210;2024-03-08T05:03:51;44.13;;;20.48;;
19605;SDS011;9950;50.168;8.210;2024-03-08T05:06:20;46.75;;;21.73;;
19605;SDS011;9950;50.168;8.210;2024-03-08T05:08:48;41.80;;;19.63;;
19605;SDS011;9950;50.168;8.210;2024-03-08T05:11:17;45.35;;;20.73;;
19605;SDS011;9950;50.168;8.210;2024-03-08T05:13:44;40.67;;;20.48;;
19605;SDS011;9950;50.168;8.210;2024-03-08T05:16:11;41.42;;;20.08;;
19605;SDS011;9950;50.168;8.210;2024-03-08T05:18:40;47.70;;;21.08;;
19605;SDS011;9950;50.168;8.210;2024-03-08T05:21:08;42.25;;;19.88;;
19605;SDS011;9950;50.168;8.210;2024-03-08T05:23:35;41.00;;;20.67;;
19605;SDS011;9950;50.168;8.210;2024-03-08T05:26:03;42.53;;;21.08;;
19605;SDS011;9950;50.168;8.210;2024-03-08T05:28:32;41.00;;;19.25;;
19605;SDS011;9950;50.168;8.210;2024-03-08T05:30:59;40.97;;;20.17;;
19605;SDS011;9950;50.168;8.210;2024-03-08T05:33:26;40.65;;;19.35;;
19605;SDS011;9950;50.168;8.210;2024-03-08T05:35:53;38.65;;;19.80;;
19605;SDS011;9950;50.168;8.210;2024-03-08T05:38:20;41.25;;;20.40;;
19605;SDS011;9950;50.168;8.210;2024-03-08T05:40:48;42.22;;;20.25;;
19605;SDS011;9950;50.168;8.210;2024-03-08T05:43:16;44.88;;;21.17;;
19605;SDS011;9950;50.168;8.210;2024-03-08T05:45:46;42.33;;;20.63;;
19605;SDS011;9950;50.168;8.210;2024-03-08T05:48:13;41.25;;;20.10;;
19605;SDS011;9950;50.168;8.210;2024-03-08T05:50:40;42.47;;;21.17;;
19605;SDS011;9950;50.168;8.210;2024-03-08T05:53:08;42.00;;;21.88;;
19605;SDS011;9950;50.168;8.210;2024-03-08T05:55:35;47.10;;;21.08;;
19605;SDS011;9950;50.168;8.210;2024-03-08T05:58:02;44.53;;;20.40;;
19605;SDS011;9950;50.168;8.210;2024-03-08T06:00:32;41.95;;;20.98;;
19605;SDS011;9950;50.168;8.210;2024-03-08T06:03:02;45.15;;;20.75;;
19605;SDS011;9950;50.168;8.210;2024-03-08T06:05:29;43.88;;;21.58;;
19605;SDS011;9950;50.168;8.210;2024-03-08T06:07:56;43.70;;;21.27;;
19605;SDS011;9950;50.168;8.210;2024-03-08T06:10:24;44.92;;;20.60;;
19605;SDS011;9950;50.168;8.210;2024-03-08T06:12:51;41.53;;;20.20;;
19605;SDS011;9950;50.168;8.210;2024-03-08T06:15:19;42.83;;;20.13;;
19605;SDS011;9950;50.168;8.210;2024-03-08T06:17:46;43.97;;;21.25;;
19605;SDS011;9950;50.168;8.210;2024-03-08T06:20:15;41.20;;;19.90;;
19605;SDS011;9950;50.168;8.210;2024-03-08T06:22:42;44.55;;;21.48;;
19605;SDS011;9950;50.168;8.210;2024-03-08T06:25:10;45.55;;;21.60;;
19605;SDS011;9950;50.168;8.210;2024-03-08T06:27:39;43.15;;;20.00;;
19605;SDS011;9950;50.168;8.210;2024-03-08T06:30:07;45.70;;;21.02;;
19605;SDS011;9950;50.168;8.210;2024-03-08T06:32:35;40.08;;;19.85;;
19605;SDS011;9950;50.168;8.210;2024-03-08T06:35:02;45.35;;;21.00;;
19605;SDS011;9950;50.168;8.210;2024-03-08T06:37:32;42.75;;;20.13;;
19605;SDS011;9950;50.168;8.210;2024-03-08T06:39:59;43.47;;;21.00;;
19605;SDS011;9950;50.168;8.210;2024-03-08T06:42:28;41.17;;;20.30;;
19605;SDS011;9950;50.168;8.210;2024-03-08T06:44:58;41.63;;;20.60;;
19605;SDS011;9950;50.168;8.210;2024-03-08T06:47:29;39.10;;;19.63;;
19605;SDS011;9950;50.168;8.210;2024-03-08T06:49:56;44.92;;;20.48;;
19605;SDS011;9950;50.168;8.210;2024-03-08T06:52:24;40.13;;;19.95;;
19605;SDS011;9950;50.168;8.210;2024-03-08T06:54:52;39.65;;;20.40;;
19605;SDS011;9950;50.168;8.210;2024-03-08T06:57:19;39.20;;;19.40;;
19605;SDS011;9950;50.168;8.210;2024-03-08T06:59:47;41.33;;;19.70;;
19605;SDS011;9950;50.168;8.210;2024-03-08T07:02:15;41.88;;;20.85;;
19605;SDS011;9950;50.168;8.210;2024-03-08T07:04:43;38.33;;;18.60;;
19605;SDS011;9950;50.168;8.210;2024-03-08T07:07:18;42.40;;;19.85;;
19605;SDS011;9950;50.168;8.210;2024-03-08T07:09:45;41.78;;;20.10;;
19605;SDS011;9950;50.168;8.210;2024-03-08T07:12:14;42.40;;;20.70;;
19605;SDS011;9950;50.168;8.210;2024-03-08T07:14:42;42.53;;;21.17;;
19605;SDS011;9950;50.168;8.210;2024-03-08T07:17:10;42.03;;;20.70;;
19605;SDS011;9950;50.168;8.210;2024-03-08T07:19:37;40.05;;;19.48;;
19605;SDS011;9950;50.168;8.210;2024-03-08T07:22:04;40.15;;;19.05;;
19605;SDS011;9950;50.168;8.210;2024-03-08T07:24:35;37.35;;;19.60;;
19605;SDS011;9950;50.168;8.210;2024-03-08T07:27:21;37.40;;;18.90;;
19605;SDS011;9950;50.168;8.210;2024-03-08T07:29:48;38.50;;;18.95;;
19605;SDS011;9950;50.168;8.210;2024-03-08T07:32:15;39.90;;;19.13;;
19605;SDS011;9950;50.168;8.210;2024-03-08T07:34:46;37.50;;;19.10;;
19605;SDS011;9950;50.168;8.210;2024-03-08T07:37:14;34.88;;;18.40;;
19605;SDS011;9950;50.168;8.210;2024-03-08T07:39:43;36.72;;;18.73;;
19605;SDS011;9950;50.168;8.210;2024-03-08T07:42:10;39.55;;;19.52;;
19605;SDS011;9950;50.168;8.210;2024-03-08T07:44:37;37.70;;;18.85;;
19605;SDS011;9950;50.168;8.210;2024-03-08T07:47:05;35.45;;;19.13;;
19605;SDS011;9950;50.168;8.210;2024-03-08T07:49:34;39.13;;;19.80;;
19605;SDS011;9950;50.168;8.210;2024-03-08T07:52:02;37.03;;;18.25;;
19605;SDS011;9950;50.168;8.210;2024-03-08T07:54:32;36.20;;;18.63;;
19605;SDS011;9950;50.168;8.210;2024-03-08T07:57:01;36.13;;;19.02;;
19605;SDS011;9950;50.168;8.210;2024-03-08T07:59:29;32.03;;;18.15;;
19605;SDS011;9950;50.168;8.210;2024-03-08T08:01:56;35.60;;;18.00;;
19605;SDS011;9950;50.168;8.210;2024-03-08T08:04:24;32.83;;;17.58;;
19605;SDS011;9950;50.168;8.210;2024-03-08T08:06:52;31.55;;;17.60;;
19605;SDS011;9950;50.168;8.210;2024-03-08T08:09:21;36.30;;;17.92;;
19605;SDS011;9950;50.168;8.210;2024-03-08T08:11:54;34.70;;;18.52;;
19605;SDS011;9950;50.168;8.210;2024-03-08T08:14:22;33.90;;;18.48;;
19605;SDS011;9950;50.168;8.210;2024-03-08T08:16:49;33.70;;;17.45;;
19605;SDS011;9950;50.168;8.210;2024-03-08T08:19:17;34.13;;;18.88;;
19605;SDS011;9950;50.168;8.210;2024-03-08T08:21:45;33.58;;;17.55;;
19605;SDS011;9950;50.168;8.210;2024-03-08T08:24:12;32.88;;;17.23;;
19605;SDS011;9950;50.168;8.210;2024-03-08T08:26:40;34.17;;;16.52;;
19605;SDS011;9950;50.168;8.210;2024-03-08T08:29:09;32.38;;;17.17;;
19605;SDS011;9950;50.168;8.210;2024-03-08T08:31:38;31.08;;;16.77;;
19605;SDS011;9950;50.168;8.210;2024-03-08T08:34:05;33.38;;;16.83;;
19605;SDS011;9950;50.168;8.210;2024-03-08T08:36:32;29.65;;;16.40;;
19605;SDS011;9950;50.168;8.210;2024-03-08T08:38:59;33.08;;;17.75;;
19605;SDS011;9950;50.168;8.210;2024-03-08T08:41:28;34.78;;;17.73;;
19605;SDS011;9950;50.168;8.210;2024-03-08T08:43:55;32.67;;;17.45;;
19605;SDS011;9950;50.168;8.210;2024-03-08T08:46:22;33.72;;;17.70;;
19605;SDS011;9950;50.168;8.210;2024-03-08T08:48:51;30.30;;;16.95;;
19605;SDS011;9950;50.168;8.210;2024-03-08T08:51:18;31.05;;;16.63;;
19605;SDS011;9950;50.168;8.210;2024-03-08T08:53:45;30.30;;;16.92;;
19605;SDS011;9950;50.168;8.210;2024-03-08T08:56:13;31.27;;;16.95;;
19605;SDS011;9950;50.168;8.210;2024-03-08T08:58:41;32.13;;;17.85;;
19605;SDS011;9950;50.168;8.210;2024-03-08T09:01:08;32.80;;;17.65;;
19605;SDS011;9950;50.168;8.210;2024-03-08T09:03:36;30.08;;;16.67;;
19605;SDS011;9950;50.168;8.210;2024-03-08T09:06:07;30.95;;;16.50;;
19605;SDS011;9950;50.168;8.210;2024-03-08T09:08:35;29.73;;;16.33;;
19605;SDS011;9950;50.168;8.210;2024-03-08T09:11:03;32.42;;;16.17;;
19605;SDS011;9950;50.168;8.210;2024-03-08T09:13:30;34.17;;;17.58;;
19605;SDS011;9950;50.168;8.210;2024-03-08T09:15:58;33.70;;;18.23;;
19605;SDS011;9950;50.168;8.210;2024-03-08T09:18:25;32.72;;;17.73;;
19605;SDS011;9950;50.168;8.210;2024-03-08T09:20:53;29.73;;;17.15;;
19605;SDS011;9950;50.168;8.210;2024-03-08T09:23:21;32.22;;;17.52;;
19605;SDS011;9950;50.168;8.210;2024-03-08T09:25:49;33.45;;;17.02;;
19605;SDS011;9950;50.168;8.210;2024-03-08T09:28:16;29.38;;;16.88;;
19605;SDS011;9950;50.168;8.210;2024-03-08T09:30:44;31.80;;;17.17;;
19605;SDS011;9950;50.168;8.210;2024-03-08T09:33:12;32.25;;;17.38;;
19605;SDS011;9950;50.168;8.210;2024-03-08T09:35:44;30.35;;;16.80;;
19605;SDS011;9950;50.168;8.210;2024-03-08T09:38:12;30.25;;;16.13;;
19605;SDS011;9950;50.168;8.210;2024-03-08T09:40:42;31.08;;;17.17;;
19605;SDS011;9950;50.168;8.210;2024-03-08T09:43:09;29.08;;;17.42;;
19605;SDS011;9950;50.168;8.210;2024-03-08T09:45:37;30.50;;;16.40;;
19605;SDS011;9950;50.168;8.210;2024-03-08T09:48:07;28.88;;;16.83;;
19605;SDS011;9950;50.168;8.210;2024-03-08T09:50:37;29.85;;;17.25;;
19605;SDS011;9950;50.168;8.210;2024-03-08T09:53:04;26.75;;;15.98;;
19605;SDS011;9950;50.168;8.210;2024-03-08T09:55:33;30.08;;;17.20;;
19605;SDS011;9950;50.168;8.210;2024-03-08T09:58:03;28.00;;;16.35;;
19605;SDS011;9950;50.168;8.210;2024-03-08T10:00:49;27.08;;;16.02;;
19605;SDS011;9950;50.168;8.210;2024-03-08T10:03:17;29.60;;;16.95;;
19605;SDS011;9950;50.168;8.210;2024-03-08T10:05:44;30.00;;;17.00;;
19605;SDS011;9950;50.168;8.210;2024-03-08T10:08:11;26.83;;;16.50;;
19605;SDS011;9950;50.168;8.210;2024-03-08T10:10:38;28.30;;;15.93;;
19605;SDS011;9950;50.168;8.210;2024-03-08T10:13:07;29.70;;;16.75;;
19605;SDS011;9950;50.168;8.210;2024-03-08T10:15:34;27.10;;;16.42;;
19605;SDS011;9950;50.168;8.210;2024-03-08T10:18:03;29.58;;;16.38;;
19605;SDS011;9950;50.168;8.210;2024-03-08T10:20:31;26.95;;;15.82;;
19605;SDS011;9950;50.168;8.210;2024-03-08T10:22:58;31.75;;;17.02;;
19605;SDS011;9950;50.168;8.210;2024-03-08T10:25:28;27.77;;;16.67;;
19605;SDS011;9950;50.168;8.210;2024-03-08T10:27:56;28.67;;;15.98;;
19605;SDS011;9950;50.168;8.210;2024-03-08T10:30:24;25.00;;;15.50;;
19605;SDS011;9950;50.168;8.210;2024-03-08T10:32:52;29.17;;;15.40;;
19605;SDS011;9950;50.168;8.210;2024-03-08T10:35:20;26.23;;;15.48;;
19605;SDS011;9950;50.168;8.210;2024-03-08T10:37:48;25.63;;;14.70;;
19605;SDS011;9950;50.168;8.210;2024-03-08T10:40:24;26.83;;;15.52;;
19605;SDS011;9950;50.168;8.210;2024-03-08T10:42:51;25.63;;;15.13;;
19605;SDS011;9950;50.168;8.210;2024-03-08T10:45:23;25.27;;;15.38;;
19605;SDS011;9950;50.168;8.210;2024-03-08T10:47:58;26.52;;;15.32;;
19605;SDS011;9950;50.168;8.210;2024-03-08T10:50:27;22.00;;;13.57;;
19605;SDS011;9950;50.168;8.210;2024-03-08T10:52:56;23.70;;;14.10;;
19605;SDS011;9950;50.168;8.210;2024-03-08T10:55:26;25.02;;;14.77;;
19605;SDS011;9950;50.168;8.210;2024-03-08T10:57:55;24.58;;;14.20;;
19605;SDS011;9950;50.168;8.210;2024-03-08T11:00:22;25.38;;;14.50;;
19605;SDS011;9950;50.168;8.210;2024-03-08T11:02:51;24.70;;;13.93;;
19605;SDS011;9950;50.168;8.210;2024-03-08T11:05:32;24.40;;;14.60;;
19605;SDS011;9950;50.168;8.210;2024-03-08T11:08:00;21.75;;;13.02;;
19605;SDS011;9950;50.168;8.210;2024-03-08T11:10:29;23.55;;;13.63;;
19605;SDS011;9950;50.168;8.210;2024-03-08T11:12:57;22.55;;;13.65;;
19605;SDS011;9950;50.168;8.210;2024-03-08T11:15:25;24.27;;;14.02;;
19605;SDS011;9950;50.168;8.210;2024-03-08T11:17:58;20.25;;;12.68;;
19605;SDS011;9950;50.168;8.210;2024-03-08T11:20:25;21.95;;;13.27;;
19605;SDS011;9950;50.168;8.210;2024-03-08T11:22:54;21.33;;;13.02;;
19605;SDS011;9950;50.168;8.210;2024-03-08T11:25:35;22.13;;;12.95;;
19605;SDS011;9950;50.168;8.210;2024-03-08T11:28:10;21.52;;;13.07;;
19605;SDS011;9950;50.168;8.210;2024-03-08T11:30:42;21.58;;;12.85;;
19605;SDS011;9950;50.168;8.210;2024-03-08T11:33:11;22.20;;;13.13;;
19605;SDS011;9950;50.168;8.210;2024-03-08T11:35:38;19.30;;;11.85;;
19605;SDS011;9950;50.168;8.210;2024-03-08T11:38:08;21.10;;;12.35;;
19605;SDS011;9950;50.168;8.210;2024-03-08T11:40:36;21.75;;;12.15;;
19605;SDS011;9950;50.168;8.210;2024-03-08T11:43:05;18.10;;;11.07;;
19605;SDS011;9950;50.168;8.210;2024-03-08T11:45:33;19.40;;;11.55;;
19605;SDS011;9950;50.168;8.210;2024-03-08T11:48:01;16.85;;;10.68;;
19605;SDS011;9950;50.168;8.210;2024-03-08T11:50:30;18.60;;;11.02;;
19605;SDS011;9950;50.168;8.210;2024-03-08T11:53:01;17.83;;;10.80;;
19605;SDS011;9950;50.168;8.210;2024-03-08T11:55:30;16.42;;;10.95;;
19605;SDS011;9950;50.168;8.210;2024-03-08T11:58:01;17.85;;;11.18;;
19605;SDS011;9950;50.168;8.210;2024-03-08T12:00:29;18.02;;;10.90;;
19605;SDS011;9950;50.168;8.210;2024-03-08T12:03:03;20.42;;;11.50;;
19605;SDS011;9950;50.168;8.210;2024-03-08T12:05:31;18.20;;;11.73;;
19605;SDS011;9950;50.168;8.210;2024-03-08T12:07:59;20.02;;;11.35;;
19605;SDS011;9950;50.168;8.210;2024-03-08T12:10:27;18.85;;;11.43;;
19605;SDS011;9950;50.168;8.210;2024-03-08T12:12:57;17.52;;;11.05;;
19605;SDS011;9950;50.168;8.210;2024-03-08T12:15:25;20.40;;;11.70;;
19605;SDS011;9950;50.168;8.210;2024-03-08T12:17:53;17.83;;;10.98;;
19605;SDS011;9950;50.168;8.210;2024-03-08T12:20:22;16.45;;;10.73;;
19605;SDS011;9950;50.168;8.210;2024-03-08T12:22:50;19.75;;;11.15;;
19605;SDS011;9950;50.168;8.210;2024-03-08T12:25:18;18.77;;;11.20;;
19605;SDS011;9950;50.168;8.210;2024-03-08T12:27:46;19.60;;;11.65;;
19605;SDS011;9950;50.168;8.210;2024-03-08T12:30:19;17.27;;;11.10;;
19605;SDS011;9950;50.168;8.210;2024-03-08T12:32:48;17.80;;;11.40;;
19605;SDS011;9950;50.168;8.210;2024-03-08T12:35:17;17.10;;;11.23;;
19605;SDS011;9950;50.168;8.210;2024-03-08T12:37:47;17.85;;;11.32;;
19605;SDS011;9950;50.168;8.210;2024-03-08T12:40:16;17.23;;;11.05;;
19605;SDS011;9950;50.168;8.210;2024-03-08T12:42:44;16.55;;;10.90;;
19605;SDS011;9950;50.168;8.210;2024-03-08T12:45:12;16.58;;;11.15;;
19605;SDS011;9950;50.168;8.210;2024-03-08T12:47:41;17.02;;;10.85;;
19605;SDS011;9950;50.168;8.210;2024-03-08T12:50:09;17.35;;;11.35;;
19605;SDS011;9950;50.168;8.210;2024-03-08T12:52:37;18.40;;;11.10;;
19605;SDS011;9950;50.168;8.210;2024-03-08T12:55:04;19.00;;;11.75;;
19605;SDS011;9950;50.168;8.210;2024-03-08T12:57:33;16.40;;;11.00;;
19605;SDS011;9950;50.168;8.210;2024-03-08T13:00:03;16.00;;;11.25;;
19605;SDS011;9950;50.168;8.210;2024-03-08T13:02:37;17.27;;;11.48;;
19605;SDS011;9950;50.168;8.210;2024-03-08T13:05:06;17.67;;;11.50;;
19605;SDS011;9950;50.168;8.210;2024-03-08T13:07:35;17.70;;;11.30;;
19605;SDS011;9950;50.168;8.210;2024-03-08T13:10:03;17.02;;;11.35;;
19605;SDS011;9950;50.168;8.210;2024-03-08T13:12:32;15.80;;;11.13;;
19605;SDS011;9950;50.168;8.210;2024-03-08T13:15:03;17.88;;;12.15;;
19605;SDS011;9950;50.168;8.210;2024-03-08T13:17:31;17.80;;;11.43;;
19605;SDS011;9950;50.168;8.210;2024-03-08T13:19:59;18.83;;;12.15;;
19605;SDS011;9950;50.168;8.210;2024-03-08T13:22:28;18.25;;;12.55;;
19605;SDS011;9950;50.168;8.210;2024-03-08T13:24:55;19.60;;;12.43;;
19605;SDS011;9950;50.168;8.210;2024-03-08T13:27:26;20.27;;;12.13;;
19605;SDS011;9950;50.168;8.210;2024-03-08T13:29:53;17.77;;;11.35;;
19605;SDS011;9950;50.168;8.210;2024-03-08T13:32:21;20.80;;;12.32;;
19605;SDS011;9950;50.168;8.210;2024-03-08T13:34:49;18.05;;;11.95;;
19605;SDS011;9950;50.168;8.210;2024-03-08T13:37:17;20.10;;;13.13;;
19605;SDS011;9950;50.168;8.210;2024-03-08T13:39:46;19.30;;;13.13;;
19605;SDS011;9950;50.168;8.210;2024-03-08T13:42:13;17.08;;;12.23;;
19605;SDS011;9950;50.168;8.210;2024-03-08T13:44:44;18.63;;;12.10;;
19605;SDS011;9950;50.168;8.210;2024-03-08T13:47:12;18.90;;;12.35;;
19605;SDS011;9950;50.168;8.210;2024-03-08T13:49:40;18.50;;;11.50;;
19605;SDS011;9950;50.168;8.210;2024-03-08T13:52:08;17.45;;;12.23;;
19605;SDS011;9950;50.168;8.210;2024-03-08T13:54:37;17.73;;;12.38;;
19605;SDS011;9950;50.168;8.210;2024-03-08T13:57:06;17.55;;;12.02;;
19605;SDS011;9950;50.168;8.210;2024-03-08T13:59:34;16.23;;;12.23;;
19605;SDS011;9950;50.168;8.210;2024-03-08T14:02:02;18.02;;;12.98;;
19605;SDS011;9950;50.168;8.210;2024-03-08T14:04:29;20.95;;;12.90;;
19605;SDS011;9950;50.168;8.210;2024-03-08T14:06:57;18.40;;;12.27;;
19605;SDS011;9950;50.168;8.210;2024-03-08T14:09:28;18.05;;;12.23;;
19605;SDS011;9950;50.168;8.210;2024-03-08T14:11:56;17.63;;;13.05;;
19605;SDS011;9950;50.168;8.210;2024-03-08T14:14:25;19.83;;;13.02;;
19605;SDS011;9950;50.168;8.210;2024-03-08T14:16:52;17.10;;;12.57;;
19605;SDS011;9950;50.168;8.210;2024-03-08T14:19:22;19.90;;;13.88;;
19605;SDS011;9950;50.168;8.210;2024-03-08T14:21:50;18.80;;;13.25;;
19605;SDS011;9950;50.168;8.210;2024-03-08T14:24:18;15.68;;;11.93;;
19605;SDS011;9950;50.168;8.210;2024-03-08T14:26:45;19.70;;;13.15;;
19605;SDS011;9950;50.168;8.210;2024-03-08T14:29:14;18.25;;;11.93;;
19605;SDS011;9950;50.168;8.210;2024-03-08T14:31:44;19.65;;;13.10;;
19605;SDS011;9950;50.168;8.210;2024-03-08T14:34:11;18.65;;;12.45;;
19605;SDS011;9950;50.168;8.210;2024-03-08T14:36:39;17.73;;;12.27;;
19605;SDS011;9950;50.168;8.210;2024-03-08T14:39:07;19.73;;;13.07;;